Tetsuryumaru — JD3524 — position and weather

sailwx.info

Track history (hours):
 
Tides and Currents Weather Stations Pressure Air Temp Water Temp Dewpoint Dewpoint Depression Visibility Wind Speed Wind Dir Waves Ship Positions

Tetsuryumaru

Last reported at 2018-Jun-22 01:15 UTC. Time now 2018-Jun-22 03:01 UTC.
Position N 34°36' E 135°05'.

Length 60 m.

Type: Cargo ship. MMSI: 431004505.

Date/timePositionNaut miles runAvg speedWind from/ knotsBaromVisibWave heightAir tempDewpointWater temp
2018-Jun-22 01:15N 34°36' E 135°05'310.4
2018-Jun-22 00:59N 34°36' E 135°08'611.6
2018-Jun-22 00:30N 34°37' E 135°15'611.6
2018-Jun-21 23:57N 34°37' E 135°23'2 0.3
2018-Jun-21 14:43N 34°36' E 135°25'210.2
2018-Jun-21 14:30N 34°36' E 135°23'510.6
2018-Jun-21 14:00N 34°36' E 135°16'510.9
2018-Jun-21 13:30N 34°35' E 135°10'611.6
2018-Jun-21 12:59N 34°36' E 135°03'1411.5
2018-Jun-21 11:46N 34°32' E 134°46'1010.8
2018-Jun-21 10:49N 34°28' E 134°35'  
2018-Jun-17 19:27N 34°28' E 134°30'610.5
2018-Jun-17 18:53N 34°30' E 134°37'510.7
2018-Jun-17 18:28N 34°32' E 134°42'611.4
2018-Jun-17 17:57N 34°34' E 134°48'1211.2
2018-Jun-17 16:56N 34°37' E 135°02'510.9
2018-Jun-17 16:27N 34°36' E 135°08'611.5
2018-Jun-17 15:57N 34°37' E 135°15'511.2
2018-Jun-17 15:29N 34°36' E 135°21'5 8.9
2018-Jun-17 14:56N 34°34' E 135°27'0 0.0
2018-Jun-17 00:28N 34°34' E 135°27'0 0.0
2018-Jun-16 23:59N 34°34' E 135°27'0 0.0
2018-Jun-16 23:29N 34°34' E 135°27'0 0.0
2018-Jun-16 21:52N 34°34' E 135°27'5 8.1
2018-Jun-16 21:14N 34°36' E 135°21'210.3
2018-Jun-16 21:00N 34°36' E 135°18'610.1
2018-Jun-16 20:26N 34°35' E 135°11'511.1
2018-Jun-16 19:59N 34°35' E 135°05'1411.7
2018-Jun-16 18:49N 34°33' E 134°49'410.1
2018-Jun-16 18:23N 34°32' E 134°44'710.4
2018-Jun-16 17:43N 34°29' E 134°36'210.3
2018-Jun-16 17:30N 34°28' E 134°34'  
2018-Jun-14 06:02N 34°36' E 135°03'0 7.0
2018-Jun-14 06:00N 34°36' E 135°04'510.0
2018-Jun-14 05:30N 34°37' E 135°09'510.9
2018-Jun-14 05:00N 34°38' E 135°16'611.1
2018-Jun-14 04:29N 34°38' E 135°23'3 0.7
2018-Jun-14 00:35N 34°39' E 135°26'1 0.5
2018-Jun-13 23:25N 34°40' E 135°26'0 0.0
2018-Jun-13 22:43N 34°40' E 135°26'1 1.6
2018-Jun-13 21:58N 34°39' E 135°25'5 9.8
2018-Jun-13 21:30N 34°38' E 135°20'510.3
2018-Jun-13 20:58N 34°36' E 135°14'510.4
2018-Jun-13 20:30N 34°35' E 135°08'1610.7
2018-Jun-13 19:03N 34°33' E 134°49'310.5
2018-Jun-13 18:46N 34°32' E 134°46'310.1
2018-Jun-13 18:25N 34°31' E 134°42'510.2
2018-Jun-13 17:57N 34°29' E 134°37'  
Track history (hours):
 
Tides and Currents Weather Stations Pressure Air Temp Water Temp Dewpoint Dewpoint Depression Visibility Wind Speed Wind Dir Waves Ship Positions

Tetsuryumaru

Last reported at 2018-Jun-22 01:15 UTC. Time now 2018-Jun-22 03:01 UTC.
Position N 34°36' E 135°05'.

Length 60 m.

Type: Cargo ship. MMSI: 431004505.

Date/timePositionNaut miles runAvg speedWind from/ knotsBaromVisibWave heightAir tempDewpointWater temp
2018-Jun-22 01:15N 34°36' E 135°05'310.4
2018-Jun-22 00:59N 34°36' E 135°08'611.6
2018-Jun-22 00:30N 34°37' E 135°15'611.6
2018-Jun-21 23:57N 34°37' E 135°23'2 0.3
2018-Jun-21 14:43N 34°36' E 135°25'210.2
2018-Jun-21 14:30N 34°36' E 135°23'510.6
2018-Jun-21 14:00N 34°36' E 135°16'510.9
2018-Jun-21 13:30N 34°35' E 135°10'611.6
2018-Jun-21 12:59N 34°36' E 135°03'1411.5
2018-Jun-21 11:46N 34°32' E 134°46'1010.8
2018-Jun-21 10:49N 34°28' E 134°35'  
2018-Jun-17 19:27N 34°28' E 134°30'610.5
2018-Jun-17 18:53N 34°30' E 134°37'510.7
2018-Jun-17 18:28N 34°32' E 134°42'611.4
2018-Jun-17 17:57N 34°34' E 134°48'1211.2
2018-Jun-17 16:56N 34°37' E 135°02'510.9
2018-Jun-17 16:27N 34°36' E 135°08'611.5
2018-Jun-17 15:57N 34°37' E 135°15'511.2
2018-Jun-17 15:29N 34°36' E 135°21'5 8.9
2018-Jun-17 14:56N 34°34' E 135°27'0 0.0
2018-Jun-17 00:28N 34°34' E 135°27'0 0.0
2018-Jun-16 23:59N 34°34' E 135°27'0 0.0
2018-Jun-16 23:29N 34°34' E 135°27'0 0.0
2018-Jun-16 21:52N 34°34' E 135°27'5 8.1
2018-Jun-16 21:14N 34°36' E 135°21'210.3
2018-Jun-16 21:00N 34°36' E 135°18'610.1
2018-Jun-16 20:26N 34°35' E 135°11'511.1
2018-Jun-16 19:59N 34°35' E 135°05'1411.7
2018-Jun-16 18:49N 34°33' E 134°49'410.1
2018-Jun-16 18:23N 34°32' E 134°44'710.4
2018-Jun-16 17:43N 34°29' E 134°36'210.3
2018-Jun-16 17:30N 34°28' E 134°34'  
2018-Jun-14 06:02N 34°36' E 135°03'0 7.0
2018-Jun-14 06:00N 34°36' E 135°04'510.0
2018-Jun-14 05:30N 34°37' E 135°09'510.9
2018-Jun-14 05:00N 34°38' E 135°16'611.1
2018-Jun-14 04:29N 34°38' E 135°23'3 0.7
2018-Jun-14 00:35N 34°39' E 135°26'1 0.5
2018-Jun-13 23:25N 34°40' E 135°26'0 0.0
2018-Jun-13 22:43N 34°40' E 135°26'1 1.6
2018-Jun-13 21:58N 34°39' E 135°25'5 9.8
2018-Jun-13 21:30N 34°38' E 135°20'510.3
2018-Jun-13 20:58N 34°36' E 135°14'510.4
2018-Jun-13 20:30N 34°35' E 135°08'1610.7
2018-Jun-13 19:03N 34°33' E 134°49'310.5
2018-Jun-13 18:46N 34°32' E 134°46'310.1
2018-Jun-13 18:25N 34°31' E 134°42'510.2
2018-Jun-13 17:57N 34°29' E 134°37'  

Dump ship's entire track history